sensor_id;sensor_type;location;lat;lon;timestamp;P1;durP1;ratioP1;P2;durP2;ratioP2
65998;SDS011;52766;56.008;37.440;2023-03-29T00:02:01;10.77;;;4.70;;
65998;SDS011;52766;56.008;37.440;2023-03-29T00:04:29;10.88;;;5.00;;
65998;SDS011;52766;56.008;37.440;2023-03-29T00:06:54;10.85;;;5.35;;
65998;SDS011;52766;56.008;37.440;2023-03-29T00:09:21;10.65;;;5.07;;
65998;SDS011;52766;56.008;37.440;2023-03-29T00:11:47;13.57;;;5.72;;
65998;SDS011;52766;56.008;37.440;2023-03-29T00:14:19;10.80;;;5.68;;
65998;SDS011;52766;56.008;37.440;2023-03-29T00:16:46;11.48;;;5.18;;
65998;SDS011;52766;56.008;37.440;2023-03-29T00:19:14;11.65;;;5.38;;
65998;SDS011;52766;56.008;37.440;2023-03-29T00:21:40;10.98;;;5.38;;
65998;SDS011;52766;56.008;37.440;2023-03-29T00:24:07;11.40;;;5.18;;
65998;SDS011;52766;56.008;37.440;2023-03-29T00:26:34;11.15;;;5.30;;
65998;SDS011;52766;56.008;37.440;2023-03-29T00:29:01;10.98;;;5.72;;
65998;SDS011;52766;56.008;37.440;2023-03-29T00:34:23;8.95;;;4.95;;
65998;SDS011;52766;56.008;37.440;2023-03-29T00:36:51;11.63;;;5.10;;
65998;SDS011;52766;56.008;37.440;2023-03-29T00:39:23;12.80;;;5.13;;
65998;SDS011;52766;56.008;37.440;2023-03-29T00:41:51;14.13;;;5.18;;
65998;SDS011;52766;56.008;37.440;2023-03-29T00:47:37;9.50;;;4.93;;
65998;SDS011;52766;56.008;37.440;2023-03-29T00:50:07;9.57;;;4.93;;
65998;SDS011;52766;56.008;37.440;2023-03-29T00:52:40;11.15;;;4.75;;
65998;SDS011;52766;56.008;37.440;2023-03-29T00:55:10;11.65;;;5.20;;
65998;SDS011;52766;56.008;37.440;2023-03-29T00:57:39;11.23;;;5.55;;
65998;SDS011;52766;56.008;37.440;2023-03-29T01:00:11;10.35;;;5.05;;
65998;SDS011;52766;56.008;37.440;2023-03-29T01:02:50;14.38;;;5.72;;
65998;SDS011;52766;56.008;37.440;2023-03-29T01:05:21;12.82;;;5.07;;
65998;SDS011;52766;56.008;37.440;2023-03-29T01:07:56;11.55;;;5.22;;
65998;SDS011;52766;56.008;37.440;2023-03-29T01:10:25;11.15;;;5.50;;
65998;SDS011;52766;56.008;37.440;2023-03-29T01:12:58;12.85;;;5.35;;
65998;SDS011;52766;56.008;37.440;2023-03-29T01:17:53;9.55;;;4.65;;
65998;SDS011;52766;56.008;37.440;2023-03-29T01:20:32;10.27;;;5.05;;
65998;SDS011;52766;56.008;37.440;2023-03-29T01:23:24;13.57;;;5.38;;
65998;SDS011;52766;56.008;37.440;2023-03-29T01:25:59;11.25;;;5.03;;
65998;SDS011;52766;56.008;37.440;2023-03-29T01:28:43;11.43;;;5.60;;
65998;SDS011;52766;56.008;37.440;2023-03-29T01:31:14;10.10;;;5.75;;
65998;SDS011;52766;56.008;37.440;2023-03-29T01:33:54;9.35;;;4.97;;
65998;SDS011;52766;56.008;37.440;2023-03-29T01:36:32;11.43;;;5.47;;
65998;SDS011;52766;56.008;37.440;2023-03-29T01:39:33;9.70;;;5.30;;
65998;SDS011;52766;56.008;37.440;2023-03-29T01:45:24;10.93;;;5.18;;
65998;SDS011;52766;56.008;37.440;2023-03-29T01:47:45;10.25;;;4.63;;
65998;SDS011;52766;56.008;37.440;2023-03-29T01:50:33;12.10;;;5.55;;
65998;SDS011;52766;56.008;37.440;2023-03-29T01:53:28;12.38;;;5.22;;
65998;SDS011;52766;56.008;37.440;2023-03-29T01:56:06;10.52;;;4.70;;
65998;SDS011;52766;56.008;37.440;2023-03-29T01:58:40;11.48;;;4.68;;
65998;SDS011;52766;56.008;37.440;2023-03-29T02:01:25;11.02;;;5.45;;
65998;SDS011;52766;56.008;37.440;2023-03-29T02:03:56;12.75;;;5.82;;
65998;SDS011;52766;56.008;37.440;2023-03-29T02:09:21;10.77;;;6.00;;
65998;SDS011;52766;56.008;37.440;2023-03-29T02:11:49;8.98;;;4.65;;
65998;SDS011;52766;56.008;37.440;2023-03-29T02:14:18;11.52;;;4.95;;
65998;SDS011;52766;56.008;37.440;2023-03-29T02:17:19;10.93;;;5.20;;
65998;SDS011;52766;56.008;37.440;2023-03-29T02:25:50;10.98;;;5.57;;
65998;SDS011;52766;56.008;37.440;2023-03-29T02:28:26;11.30;;;4.85;;
65998;SDS011;52766;56.008;37.440;2023-03-29T02:34:17;11.32;;;4.45;;
65998;SDS011;52766;56.008;37.440;2023-03-29T02:37:07;9.63;;;4.32;;
65998;SDS011;52766;56.008;37.440;2023-03-29T02:39:37;11.48;;;4.60;;
65998;SDS011;52766;56.008;37.440;2023-03-29T02:42:05;9.93;;;4.57;;
65998;SDS011;52766;56.008;37.440;2023-03-29T02:44:34;11.00;;;5.10;;
65998;SDS011;52766;56.008;37.440;2023-03-29T02:47:16;11.93;;;4.35;;
65998;SDS011;52766;56.008;37.440;2023-03-29T02:49:48;11.02;;;5.32;;
65998;SDS011;52766;56.008;37.440;2023-03-29T02:52:16;9.95;;;4.65;;
65998;SDS011;52766;56.008;37.440;2023-03-29T02:54:51;10.55;;;4.57;;
65998;SDS011;52766;56.008;37.440;2023-03-29T02:57:21;8.18;;;3.42;;
65998;SDS011;52766;56.008;37.440;2023-03-29T02:59:52;9.40;;;4.03;;
65998;SDS011;52766;56.008;37.440;2023-03-29T03:02:27;9.60;;;4.55;;
65998;SDS011;52766;56.008;37.440;2023-03-29T03:05:30;9.55;;;4.60;;
65998;SDS011;52766;56.008;37.440;2023-03-29T03:08:01;8.18;;;4.20;;
65998;SDS011;52766;56.008;37.440;2023-03-29T03:10:55;12.15;;;5.03;;
65998;SDS011;52766;56.008;37.440;2023-03-29T03:13:22;11.80;;;5.38;;
65998;SDS011;52766;56.008;37.440;2023-03-29T03:15:53;12.82;;;5.20;;
65998;SDS011;52766;56.008;37.440;2023-03-29T03:18:24;10.98;;;4.57;;
65998;SDS011;52766;56.008;37.440;2023-03-29T03:20:54;9.65;;;4.75;;
65998;SDS011;52766;56.008;37.440;2023-03-29T03:23:24;11.15;;;4.50;;
65998;SDS011;52766;56.008;37.440;2023-03-29T03:25:57;9.00;;;5.07;;
65998;SDS011;52766;56.008;37.440;2023-03-29T03:28:30;8.45;;;4.32;;
65998;SDS011;52766;56.008;37.440;2023-03-29T03:31:39;10.52;;;5.13;;
65998;SDS011;52766;56.008;37.440;2023-03-29T03:34:31;6.70;;;3.63;;
65998;SDS011;52766;56.008;37.440;2023-03-29T03:37:08;8.20;;;4.10;;
65998;SDS011;52766;56.008;37.440;2023-03-29T03:39:56;10.60;;;5.45;;
65998;SDS011;52766;56.008;37.440;2023-03-29T03:42:28;8.25;;;4.20;;
65998;SDS011;52766;56.008;37.440;2023-03-29T03:45:00;10.40;;;5.13;;
65998;SDS011;52766;56.008;37.440;2023-03-29T03:51:09;11.73;;;4.90;;
65998;SDS011;52766;56.008;37.440;2023-03-29T03:57:05;10.52;;;4.13;;
65998;SDS011;52766;56.008;37.440;2023-03-29T04:00:02;8.30;;;4.05;;
65998;SDS011;52766;56.008;37.440;2023-03-29T04:07:02;8.75;;;4.18;;
65998;SDS011;52766;56.008;37.440;2023-03-29T04:09:59;11.10;;;4.60;;
65998;SDS011;52766;56.008;37.440;2023-03-29T04:13:03;9.52;;;4.35;;
65998;SDS011;52766;56.008;37.440;2023-03-29T04:16:24;8.98;;;5.35;;
65998;SDS011;52766;56.008;37.440;2023-03-29T04:30:42;13.75;;;4.65;;
65998;SDS011;52766;56.008;37.440;2023-03-29T04:33:43;8.40;;;3.80;;
65998;SDS011;52766;56.008;37.440;2023-03-29T04:36:18;9.00;;;4.53;;
65998;SDS011;52766;56.008;37.440;2023-03-29T04:38:49;11.15;;;4.18;;
65998;SDS011;52766;56.008;37.440;2023-03-29T04:41:19;9.55;;;4.07;;
65998;SDS011;52766;56.008;37.440;2023-03-29T04:44:21;9.07;;;4.45;;
65998;SDS011;52766;56.008;37.440;2023-03-29T04:47:18;8.02;;;4.25;;
65998;SDS011;52766;56.008;37.440;2023-03-29T04:50:01;8.23;;;3.83;;
65998;SDS011;52766;56.008;37.440;2023-03-29T04:52:49;8.52;;;4.35;;
65998;SDS011;52766;56.008;37.440;2023-03-29T04:59:06;7.70;;;4.38;;
65998;SDS011;52766;56.008;37.440;2023-03-29T05:01:37;7.68;;;3.70;;
65998;SDS011;52766;56.008;37.440;2023-03-29T05:04:07;5.18;;;2.97;;
65998;SDS011;52766;56.008;37.440;2023-03-29T05:06:58;6.97;;;3.83;;
65998;SDS011;52766;56.008;37.440;2023-03-29T05:10:26;8.85;;;4.30;;
65998;SDS011;52766;56.008;37.440;2023-03-29T05:52:09;8.25;;;4.05;;
65998;SDS011;52766;56.008;37.440;2023-03-29T06:36:19;6.30;;;3.38;;
65998;SDS011;52766;56.008;37.440;2023-03-29T06:48:16;8.82;;;3.50;;
65998;SDS011;52766;56.008;37.440;2023-03-29T06:52:16;6.68;;;3.10;;
65998;SDS011;52766;56.008;37.440;2023-03-29T07:46:30;11.55;;;3.38;;
65998;SDS011;52766;56.008;37.440;2023-03-29T07:58:06;8.30;;;3.50;;
65998;SDS011;52766;56.008;37.440;2023-03-29T08:01:26;6.15;;;3.35;;
65998;SDS011;52766;56.008;37.440;2023-03-29T08:15:47;6.00;;;2.78;;
65998;SDS011;52766;56.008;37.440;2023-03-29T08:47:37;6.10;;;2.75;;
65998;SDS011;52766;56.008;37.440;2023-03-29T08:55:19;6.10;;;2.78;;
65998;SDS011;52766;56.008;37.440;2023-03-29T08:59:35;6.47;;;3.13;;
65998;SDS011;52766;56.008;37.440;2023-03-29T09:04:01;7.85;;;3.17;;
65998;SDS011;52766;56.008;37.440;2023-03-29T09:07:35;6.63;;;2.97;;
65998;SDS011;52766;56.008;37.440;2023-03-29T09:42:40;6.75;;;3.30;;
65998;SDS011;52766;56.008;37.440;2023-03-29T09:53:27;6.72;;;3.47;;
65998;SDS011;52766;56.008;37.440;2023-03-29T10:00:35;8.07;;;3.10;;
65998;SDS011;52766;56.008;37.440;2023-03-29T10:03:51;6.53;;;2.90;;
65998;SDS011;52766;56.008;37.440;2023-03-29T10:15:31;8.38;;;3.92;;
65998;SDS011;52766;56.008;37.440;2023-03-29T10:26:01;6.80;;;3.47;;
65998;SDS011;52766;56.008;37.440;2023-03-29T10:33:28;4.85;;;2.85;;
65998;SDS011;52766;56.008;37.440;2023-03-29T21:08:43;35.55;;;16.98;;
65998;SDS011;52766;56.008;37.440;2023-03-29T21:16:39;31.58;;;16.67;;
65998;SDS011;52766;56.008;37.440;2023-03-29T21:22:52;34.67;;;17.10;;
65998;SDS011;52766;56.008;37.440;2023-03-29T21:25:34;36.65;;;17.25;;
65998;SDS011;52766;56.008;37.440;2023-03-29T21:28:08;36.85;;;17.23;;
65998;SDS011;52766;56.008;37.440;2023-03-29T21:30:56;37.90;;;18.52;;
65998;SDS011;52766;56.008;37.440;2023-03-29T21:34:00;35.53;;;16.40;;
65998;SDS011;52766;56.008;37.440;2023-03-29T21:36:44;36.88;;;18.33;;
65998;SDS011;52766;56.008;37.440;2023-03-29T21:39:52;34.83;;;17.98;;
65998;SDS011;52766;56.008;37.440;2023-03-29T21:42:34;35.05;;;16.52;;
65998;SDS011;52766;56.008;37.440;2023-03-29T21:46:00;34.92;;;17.85;;
65998;SDS011;52766;56.008;37.440;2023-03-29T21:49:09;36.22;;;18.05;;
65998;SDS011;52766;56.008;37.440;2023-03-29T21:52:00;35.53;;;17.08;;
65998;SDS011;52766;56.008;37.440;2023-03-29T21:54:44;38.65;;;18.50;;
65998;SDS011;52766;56.008;37.440;2023-03-29T22:11:22;38.78;;;18.77;;
65998;SDS011;52766;56.008;37.440;2023-03-29T22:34:40;34.63;;;16.15;;
65998;SDS011;52766;56.008;37.440;2023-03-29T22:37:21;39.40;;;18.45;;
65998;SDS011;52766;56.008;37.440;2023-03-29T22:40:08;39.50;;;17.25;;
65998;SDS011;52766;56.008;37.440;2023-03-29T22:45:53;40.80;;;17.35;;
65998;SDS011;52766;56.008;37.440;2023-03-29T22:48:40;37.83;;;17.17;;
65998;SDS011;52766;56.008;37.440;2023-03-29T22:51:12;38.88;;;17.90;;
65998;SDS011;52766;56.008;37.440;2023-03-29T22:53:41;38.55;;;17.13;;
65998;SDS011;52766;56.008;37.440;2023-03-29T22:56:12;37.65;;;16.13;;
65998;SDS011;52766;56.008;37.440;2023-03-29T22:58:41;36.40;;;16.98;;
65998;SDS011;52766;56.008;37.440;2023-03-29T23:01:08;38.63;;;17.30;;
65998;SDS011;52766;56.008;37.440;2023-03-29T23:03:35;42.70;;;19.08;;
65998;SDS011;52766;56.008;37.440;2023-03-29T23:06:04;36.05;;;15.15;;
65998;SDS011;52766;56.008;37.440;2023-03-29T23:08:30;35.10;;;15.75;;
65998;SDS011;52766;56.008;37.440;2023-03-29T23:11:00;36.90;;;16.85;;
65998;SDS011;52766;56.008;37.440;2023-03-29T23:13:27;37.58;;;15.82;;
65998;SDS011;52766;56.008;37.440;2023-03-29T23:15:54;41.63;;;18.00;;
65998;SDS011;52766;56.008;37.440;2023-03-29T23:18:22;33.38;;;15.82;;
65998;SDS011;52766;56.008;37.440;2023-03-29T23:20:49;37.47;;;18.05;;
65998;SDS011;52766;56.008;37.440;2023-03-29T23:23:17;35.83;;;17.48;;
65998;SDS011;52766;56.008;37.440;2023-03-29T23:25:45;39.30;;;17.60;;
65998;SDS011;52766;56.008;37.440;2023-03-29T23:28:13;38.63;;;17.52;;
65998;SDS011;52766;56.008;37.440;2023-03-29T23:30:41;35.30;;;17.00;;
65998;SDS011;52766;56.008;37.440;2023-03-29T23:33:07;40.65;;;17.58;;
65998;SDS011;52766;56.008;37.440;2023-03-29T23:35:35;40.40;;;17.08;;
65998;SDS011;52766;56.008;37.440;2023-03-29T23:38:02;42.60;;;18.15;;
65998;SDS011;52766;56.008;37.440;2023-03-29T23:40:30;44.67;;;18.35;;
65998;SDS011;52766;56.008;37.440;2023-03-29T23:42:57;43.75;;;20.10;;
65998;SDS011;52766;56.008;37.440;2023-03-29T23:45:25;43.70;;;19.08;;
65998;SDS011;52766;56.008;37.440;2023-03-29T23:47:52;44.13;;;19.30;;
65998;SDS011;52766;56.008;37.440;2023-03-29T23:50:18;44.58;;;18.23;;
65998;SDS011;52766;56.008;37.440;2023-03-29T23:52:44;43.38;;;19.20;;
65998;SDS011;52766;56.008;37.440;2023-03-29T23:55:13;43.88;;;19.08;;
65998;SDS011;52766;56.008;37.440;2023-03-29T23:57:40;43.33;;;19.63;;
